Main page
METAR-TAF:

Airports :

Singapore, Singapore

Paya Lebar Air Base

latitude: 01-22N, longitude: 103-55E, elevation: 18 m

Current weather observation

The report was made 17 minutes ago, at 06:00 UTC
Wind 10 kt from the West/Southwest
Temperature 34°C
Humidity 41%
Pressure 1009 hPa
Visibility: 7000 m
Few clouds at a height of 1800 ft
Broken clouds at a height of 27000 ft

METAR: WSAP 270600Z 25010KT 7000 FEW018 BKN270 34/19 Q1009

Time: 14:17 (06:17 UTC)

Forecast

The report was made 1 hour and 17 minutes ago, at 05:00 UTC
Forecast valid from 27 at 06 UTC to 28 at 12 UTC
Wind 8 kt from the Southwest
Visibility: 4000 m
Few clouds at a height of 1800 ft, Cumulonimbus.
Scattered clouds at a height of 2000 ft
haze

TAF: WSAP 270500Z 2706/2812 22008KT 4000 HZ FEW018CB SCT020

METAR-TAF

Weather observations and forecasts of more than 4000 airports (METAR and TAF reports).

The available stations are represented by yellow and red dots on the map.

Hover mouse over dot to see the name of the station.

Then click to see weather observations and forecasts.

To change the map : click on the green buttons with a black cross to zoom in, on the green button with a dash to zoom out, or on the green arrows for adjacent maps.


METAR-TAF: